Time;durP1;ratioP1;P1;durP2;ratioP2;P2;SDS_P1;SDS_P2;PMS_P1;PMS_P2;Temp;Humidity;BMP_temperature;BMP_pressure;BME280_temperature;BME280_humidity;BME280_pressure;Samples;Min_cycle;Max_cycle;Signal;HPM_P1;HPM_P2
2022/02/02 00:00:38;;;;;;;6.63;3.30;;;;;;;-1.12;84.18;98237.28;5063626;28;20025;-72
2022/02/02 00:03:10;;;;;;;8.40;3.53;;;;;;;-1.15;84.28;98247.47;5063558;28;20082;-73
2022/02/02 00:08:19;;;;;;;10.20;2.80;;;;;;;-1.13;84.18;98245.75;5063322;28;20025;-74
2022/02/02 00:13:26;;;;;;;7.72;3.22;;;;;;;-1.10;84.17;98260.22;5063204;28;20024;-72
2022/02/02 00:16:02;;;;;;;6.22;2.45;;;;;;;-1.08;84.19;98267.00;5063206;28;20048;-73
2022/02/02 00:21:04;;;;;;;7.93;2.67;;;;;;;-1.20;84.38;98264.41;5063264;28;20060;-73
2022/02/02 00:23:36;;;;;;;7.82;3.90;;;;;;;-1.20;84.34;98264.41;5063036;28;20028;-73
2022/02/02 00:26:07;;;;;;;3.97;1.92;;;;;;;-1.14;84.47;98288.22;5063354;28;20048;-73
2022/02/02 00:28:38;;;;;;;7.75;2.70;;;;;;;-1.12;84.54;98289.06;5045923;28;20036;-73
2022/02/02 00:31:08;;;;;;;5.00;1.85;;;;;;;-1.15;84.44;98281.41;5063707;28;20092;-72
2022/02/02 00:33:40;;;;;;;2.92;1.83;;;;;;;-1.09;84.53;98300.13;5063419;28;20028;-73
2022/02/02 00:36:11;;;;;;;4.72;2.30;;;;;;;-1.12;84.50;98306.06;5063427;28;20025;-74
2022/02/02 00:38:36;;;;;;;6.78;2.83;;;;;;;-1.16;84.78;98307.72;5062868;28;20075;-73
2022/02/02 00:41:02;;;;;;;6.32;2.85;;;;;;;-1.19;84.89;98304.31;5063151;28;20021;-73
2022/02/02 00:43:28;;;;;;;3.55;1.92;;;;;;;-1.07;84.81;98317.09;5063320;28;20040;-72
2022/02/02 00:45:54;;;;;;;4.18;2.13;;;;;;;-1.01;84.39;98316.28;5063173;28;20051;-74
2022/02/02 00:48:25;;;;;;;3.83;2.30;;;;;;;-1.03;84.37;98310.31;5063215;28;20029;-73
2022/02/02 00:50:50;;;;;;;8.93;2.45;;;;;;;-1.08;84.43;98306.91;5063193;28;20028;-72
2022/02/02 00:53:17;;;;;;;5.20;2.25;;;;;;;-1.14;84.35;98295.00;5063188;28;20029;-73
2022/02/02 00:55:43;;;;;;;3.80;1.95;;;;;;;-1.16;84.40;98289.91;5063066;28;20521;-73
2022/02/02 00:58:08;;;;;;;10.43;2.60;;;;;;;-1.22;84.55;98286.47;5062893;28;20029;-73
2022/02/02 01:00:34;;;;;;;6.50;2.58;;;;;;;-1.14;84.95;98320.47;5045064;28;20376;-73
2022/02/02 01:02:59;;;;;;;5.38;2.92;;;;;;;-1.19;84.76;98312.81;5045129;28;20560;-73
2022/02/02 01:05:25;;;;;;;9.68;3.05;;;;;;;-1.08;84.96;98329.81;5045036;28;20053;-73
2022/02/02 01:10:29;;;;;;;5.65;2.80;;;;;;;-1.04;84.78;98334.94;5063360;28;20096;-72
2022/02/02 01:20:58;;;;;;;4.85;2.80;;;;;;;-1.05;84.67;98355.31;4942757;29;20028;-72
2022/02/02 01:28:42;;;;;;;5.28;2.90;;;;;;;-1.01;84.66;98375.69;4942907;29;20412;-72
2022/02/02 01:31:14;;;;;;;4.75;2.58;;;;;;;-1.02;84.59;98375.69;4942577;29;20039;-72
2022/02/02 01:33:40;;;;;;;4.20;2.50;;;;;;;-1.03;84.73;98377.41;4943997;29;20060;-72
2022/02/02 01:36:06;;;;;;;7.30;3.05;;;;;;;-1.03;84.73;98387.59;4946254;29;20043;-72
2022/02/02 01:38:34;;;;;;;6.05;2.42;;;;;;;-1.02;84.72;98391.84;4945845;29;20082;-72
2022/02/02 01:41:05;;;;;;;8.00;2.45;;;;;;;-1.01;84.58;98402.91;4945993;29;20035;-72
2022/02/02 01:43:47;;;;;;;6.45;2.47;;;;;;;-1.03;84.72;98397.78;4946157;29;20042;-71
2022/02/02 01:46:16;;;;;;;6.20;2.70;;;;;;;-1.07;84.52;98400.31;4945958;29;20042;-71
2022/02/02 01:48:59;;;;;;;5.85;2.60;;;;;;;-1.08;84.66;98407.09;4945779;29;20579;-72
2022/02/02 01:56:17;;;;;;;6.00;3.03;;;;;;;-1.08;84.71;98422.38;5065839;28;20021;-71
2022/02/02 02:01:11;;;;;;;6.22;2.63;;;;;;;-1.08;84.80;98430.00;5065737;28;20017;-72
2022/02/02 02:03:37;;;;;;;4.45;2.88;;;;;;;-1.09;84.74;98430.88;5065631;28;20036;-72
2022/02/02 02:06:03;;;;;;;4.93;2.15;;;;;;;-1.07;84.72;98441.88;5065473;28;20053;-71
2022/02/02 02:08:29;;;;;;;4.95;2.47;;;;;;;-1.16;84.68;98434.19;5065579;28;20035;-72
2022/02/02 02:10:54;;;;;;;6.47;2.33;;;;;;;-1.06;84.80;98451.25;5065359;28;20016;-72
2022/02/02 02:13:55;;;;;;;8.23;2.35;;;;;;;-1.16;84.92;98439.28;5065452;28;20017;-71
2022/02/02 02:16:14;;;;;;;7.45;2.05;;;;;;;-1.07;84.69;98464.81;5065277;28;20029;-71
2022/02/02 02:18:40;;;;;;;6.38;2.08;;;;;;;-1.09;84.94;98460.56;5063789;28;20039;-71
2022/02/02 02:21:10;;;;;;;6.78;1.92;;;;;;;-1.15;84.96;98453.75;5065200;28;20033;-71
2022/02/02 02:23:36;;;;;;;6.15;1.90;;;;;;;-1.02;84.69;98475.03;5065618;28;20017;-71
2022/02/02 02:26:02;;;;;;;4.60;1.52;;;;;;;-1.13;84.63;98464.78;5065266;28;20519;-71
2022/02/02 02:29:03;;;;;;;4.50;1.63;;;;;;;-1.07;84.69;98477.56;5065173;28;20021;-72
2022/02/02 02:55:57;;;;;;;3.03;1.55;;;;;;;-1.19;85.06;98546.22;5064765;28;20063;-72
2022/02/02 03:31:24;;;;;;;7.43;2.10;;;;;;;-1.15;85.22;98644.75;5063836;28;20074;-73
2022/02/02 03:58:21;;;;;;;4.10;2.78;;;;;;;-1.10;84.87;98714.41;5063284;28;20052;-72
2022/02/02 04:01:12;;;;;;;6.22;2.42;;;;;;;-1.17;84.84;98702.44;5062653;28;20033;-71
2022/02/02 04:06:15;;;;;;;6.47;2.80;;;;;;;-1.07;84.64;98728.88;5063300;28;20053;-72
2022/02/02 04:08:41;;;;;;;5.00;2.53;;;;;;;-1.07;84.67;98736.53;5063327;28;20056;-72
2022/02/02 04:11:25;;;;;;;7.70;2.50;;;;;;;-1.06;84.58;98740.75;5063213;28;20440;-72
2022/02/02 04:51:42;;;;;;;7.50;2.75;;;;;;;-1.23;84.22;98860.25;5062657;28;20035;-72
2022/02/02 04:59:30;;;;;;;4.65;2.50;;;;;;;-1.09;84.03;98901.19;5062671;28;20056;-73
2022/02/02 05:07:42;;;;;;;6.30;2.42;;;;;;;-1.19;84.14;98893.44;5062750;28;20036;-70
2022/02/02 05:18:39;;;;;;;5.38;2.97;;;;;;;-1.34;84.08;98929.69;5066554;28;20036;-69
2022/02/02 05:22:06;;;;;;;7.07;2.53;;;;;;;-1.34;84.05;98936.50;5063699;28;20037;-70
2022/02/02 05:24:45;;;;;;;3.65;2.35;;;;;;;-1.38;84.21;98948.31;5048443;28;20094;-73
2022/02/02 05:41:13;;;;;;;4.28;2.25;;;;;;;-1.45;83.91;98954.13;5066035;28;20092;-73
2022/02/02 05:53:29;;;;;;;4.97;1.92;;;;;;;-1.48;83.71;99054.19;5065662;28;20144;-73
2022/02/02 05:55:56;;;;;;;7.88;2.40;;;;;;;-1.48;84.11;99066.06;5065758;28;20473;-73
2022/02/02 05:58:26;;;;;;;6.32;2.80;;;;;;;-1.47;83.68;99065.25;5047530;28;20055;-72
2022/02/02 06:00:55;;;;;;;3.53;2.22;;;;;;;-1.52;83.64;99067.72;5065685;28;20025;-75
2022/02/02 06:03:26;;;;;;;3.78;2.30;;;;;;;-1.65;83.71;99061.53;5065720;28;20029;-73
2022/02/02 06:05:53;;;;;;;6.03;3.33;;;;;;;-1.62;83.68;99076.84;5065631;28;20094;-72
2022/02/02 06:08:19;;;;;;;5.28;1.77;;;;;;;-1.62;83.90;99085.34;5065681;28;20432;-74
2022/02/02 06:10:45;;;;;;;5.20;2.33;;;;;;;-1.57;83.52;99100.72;5047442;28;20458;-73
2022/02/02 06:13:10;;;;;;;9.00;2.67;;;;;;;-1.64;83.73;99111.59;5065400;28;20043;-72
2022/02/02 06:15:36;;;;;;;9.35;2.75;;;;;;;-1.59;83.71;99125.28;5065252;28;20021;-72
2022/02/02 06:18:04;;;;;;;4.68;2.60;;;;;;;-1.64;83.92;99129.41;5065156;28;20025;-73
2022/02/02 06:20:30;;;;;;;9.15;2.45;;;;;;;-1.62;83.73;99141.34;5063908;28;20035;-73
2022/02/02 06:23:01;;;;;;;6.38;2.75;;;;;;;-1.60;83.78;99148.16;5065149;28;20025;-72
2022/02/02 06:25:32;;;;;;;2.58;2.15;;;;;;;-1.59;83.61;99153.28;5065335;28;20020;-72
2022/02/02 06:28:03;;;;;;;6.32;2.92;;;;;;;-1.61;83.75;99165.09;5046994;28;20033;-71
2022/02/02 06:30:29;;;;;;;6.47;2.92;;;;;;;-1.72;83.73;99157.25;5064877;28;20025;-71
2022/02/02 06:33:09;;;;;;;3.40;2.67;;;;;;;-1.67;83.80;99162.44;5064869;28;20020;-71
2022/02/02 06:35:36;;;;;;;3.50;2.58;;;;;;;-1.55;83.39;99185.59;5046865;28;20071;-71
2022/02/02 06:38:02;;;;;;;4.10;2.78;;;;;;;-1.61;83.44;99205.81;5064707;28;20057;-71
2022/02/02 06:40:28;;;;;;;5.28;2.75;;;;;;;-1.62;83.46;99202.44;5046900;28;20377;-71
2022/02/02 06:42:54;;;;;;;7.38;2.92;;;;;;;-1.58;83.41;99199.97;5064640;28;20025;-71
2022/02/02 06:45:20;;;;;;;6.75;3.45;;;;;;;-1.60;83.41;99212.66;5064558;28;20032;-71
2022/02/02 06:47:47;;;;;;;6.95;2.63;;;;;;;-1.62;83.29;99216.84;5063484;28;20108;-71
2022/02/02 06:56:54;;;;;;;8.20;3.15;;;;;;;-1.60;83.16;99238.09;5064519;28;20032;-70
2022/02/02 07:05:30;;;;;;;5.93;3.33;;;;;;;-1.72;83.13;99269.22;5064624;28;20021;-71
2022/02/02 07:11:02;;;;;;;6.88;2.90;;;;;;;-1.83;83.12;99263.00;4982826;28;20022;-71
2022/02/02 07:29:04;;;;;;;8.77;3.40;;;;;;;-1.67;82.85;99332.94;4982676;28;20042;-72
2022/02/02 07:31:48;;;;;;;8.40;3.83;;;;;;;-1.82;82.78;99303.75;4982562;28;20045;-73
2022/02/02 07:34:33;;;;;;;6.50;4.20;;;;;;;-1.71;82.75;99328.63;4982964;28;20034;-73
2022/02/02 07:37:05;;;;;;;6.57;3.35;;;;;;;-1.80;82.48;99327.56;4982766;28;20030;-74
2022/02/02 07:39:33;;;;;;;6.65;3.13;;;;;;;-1.78;82.76;99335.22;4982215;28;20046;-73
2022/02/02 07:42:03;;;;;;;6.25;3.58;;;;;;;-1.78;82.52;99340.31;4965860;28;20098;-73
2022/02/02 07:44:36;;;;;;;8.32;4.13;;;;;;;-1.89;82.43;99342.59;4982285;28;20031;-71
2022/02/02 07:47:06;;;;;;;8.23;3.70;;;;;;;-1.85;82.36;99351.19;5008150;28;20497;-73
2022/02/02 07:49:36;;;;;;;8.02;3.55;;;;;;;-1.87;82.62;99353.69;5046093;28;20013;-72
2022/02/02 07:52:02;;;;;;;6.68;3.50;;;;;;;-1.91;82.69;99357.84;5063753;28;20017;-74
2022/02/02 07:54:34;;;;;;;7.00;3.83;;;;;;;-1.98;82.41;99358.47;5063493;28;20033;-73
2022/02/02 07:57:05;;;;;;;9.43;4.05;;;;;;;-1.94;82.76;99370.47;5045562;28;20048;-73
2022/02/02 07:59:43;;;;;;;6.22;3.50;;;;;;;-2.00;82.69;99355.91;5063664;28;20033;-72
2022/02/02 08:02:08;;;;;;;7.30;3.80;;;;;;;-1.94;82.55;99382.31;5063531;28;20071;-72
2022/02/02 08:04:35;;;;;;;4.63;2.58;;;;;;;-2.07;82.57;99364.22;5063452;28;20024;-71
2022/02/02 08:07:00;;;;;;;5.63;2.83;;;;;;;-2.02;82.36;99377.91;5063853;28;20085;-72
2022/02/02 08:11:54;;;;;;;8.57;3.58;;;;;;;-1.89;82.30;99413.84;5063311;28;20429;-72
2022/02/02 08:14:20;;;;;;;11.43;6.57;;;;;;;-1.97;82.33;99406.00;5064117;28;20025;-72
2022/02/02 08:16:46;;;;;;;9.70;4.25;;;;;;;-1.82;82.37;99418.25;5063528;28;20056;-72
2022/02/02 08:19:11;;;;;;;6.10;3.28;;;;;;;-1.81;82.54;99409.81;5063404;28;20021;-71
2022/02/02 08:21:37;;;;;;;8.13;3.72;;;;;;;-1.80;82.20;99423.38;5063398;28;20161;-71
2022/02/02 08:24:02;;;;;;;5.15;3.13;;;;;;;-1.91;82.16;99423.97;5063350;28;20032;-72
2022/02/02 08:26:28;;;;;;;6.65;3.42;;;;;;;-1.82;82.11;99437.78;5061736;28;20028;-73
2022/02/02 08:28:57;;;;;;;5.07;3.17;;;;;;;-1.87;82.14;99440.19;5063297;28;20489;-72
2022/02/02 08:31:26;;;;;;;9.45;4.32;;;;;;;-1.78;82.32;99454.84;5063371;28;20017;-72
2022/02/02 08:33:55;;;;;;;8.73;3.78;;;;;;;-1.80;82.22;99438.66;5063426;28;20047;-72
2022/02/02 08:36:21;;;;;;;6.55;3.58;;;;;;;-1.68;82.22;99458.50;5063199;28;20029;-72
2022/02/02 08:41:16;;;;;;;9.68;4.07;;;;;;;-1.55;82.39;99474.94;5063168;28;20029;-72
2022/02/02 08:43:48;;;;;;;8.55;3.40;;;;;;;-1.58;82.30;99459.59;5064525;28;20553;-72
2022/02/02 08:46:38;;;;;;;8.98;3.75;;;;;;;-1.55;81.96;99470.69;5067103;28;20036;-72
2022/02/02 08:49:03;;;;;;;6.85;3.70;;;;;;;-1.47;81.86;99495.50;5066499;28;20147;-72
2022/02/02 08:51:33;;;;;;;11.98;5.40;;;;;;;-1.48;81.89;99491.22;5049014;28;20021;-72
2022/02/02 08:59:08;;;;;;;7.28;3.17;;;;;;;-1.45;81.24;99516.78;5067077;28;20029;-70
2022/02/02 09:01:35;;;;;;;5.28;3.38;;;;;;;-1.50;81.08;99526.81;5048900;28;20072;-71
2022/02/02 09:06:45;;;;;;;4.53;3.05;;;;;;;-1.51;80.80;99531.06;5066917;28;20035;-71
2022/02/02 09:09:17;;;;;;;5.05;2.80;;;;;;;-1.62;80.91;99514.66;5066906;28;20048;-71
2022/02/02 09:25:15;;;;;;;6.95;3.95;;;;;;;-1.38;80.77;99539.91;5066455;28;20089;-72
2022/02/02 09:35:54;;;;;;;8.05;4.45;;;;;;;-1.23;80.92;99583.56;5066195;28;20036;-70
2022/02/02 09:38:20;;;;;;;4.85;3.20;;;;;;;-1.21;80.42;99582.75;5047936;28;20045;-71
2022/02/02 09:43:25;;;;;;;4.30;2.72;;;;;;;-1.12;80.40;99593.19;5065930;28;20035;-70
2022/02/02 09:45:59;;;;;;;6.50;4.18;;;;;;;-1.07;80.45;99600.94;5065849;28;20025;-72
2022/02/02 09:48:30;;;;;;;6.72;3.50;;;;;;;-1.02;80.17;99586.66;5066187;28;20029;-71
2022/02/02 09:51:02;;;;;;;8.35;4.43;;;;;;;-1.07;80.57;99565.28;5066054;28;20076;-72
2022/02/02 09:53:52;;;;;;;8.18;4.30;;;;;;;-0.82;80.39;99588.84;5048062;28;20029;-70
2022/02/02 09:59:03;;;;;;;7.05;3.88;;;;;;;-0.76;80.36;99573.69;5065538;28;20029;-71
2022/02/02 10:09:28;;;;;;;8.30;4.07;;;;;;;-0.54;79.89;99581.84;5065155;28;20025;-71
2022/02/02 10:14:25;;;;;;;8.95;3.97;;;;;;;-0.35;80.11;99584.81;5065129;28;20074;-71
2022/02/02 10:16:51;;;;;;;;;;;;;;;-0.33;79.90;99595.94;5065267;28;20027;-71
2022/02/02 10:19:22;;;;;;;6.88;4.30;;;;;;;-0.34;79.41;99583.13;5064744;28;19952;-70
2022/02/02 10:21:48;;;;;;;8.70;3.80;;;;;;;-0.42;79.52;99577.88;5046701;28;20040;-70
2022/02/02 10:24:15;;;;;;;5.38;3.20;;;;;;;-0.22;79.49;99611.47;5064961;28;20043;-74
2022/02/02 10:26:58;;;;;;;5.13;3.30;;;;;;;-0.18;79.70;99620.06;5065058;28;20021;-74
2022/02/02 10:29:37;;;;;;;5.93;4.10;;;;;;;-0.15;79.55;99632.91;5065537;28;20013;-74
2022/02/02 10:32:03;;;;;;;6.95;4.88;;;;;;;-0.22;78.80;99620.84;5065146;28;20481;-71
2022/02/02 10:34:28;;;;;;;4.55;2.38;;;;;;;-0.23;78.54;99642.06;5064990;28;20037;-72
2022/02/02 10:37:22;;;;;;;4.93;2.83;;;;;;;-0.35;78.56;99642.63;5064625;28;20512;-71
2022/02/02 10:39:49;;;;;;;4.75;3.40;;;;;;;-0.41;78.66;99643.34;5065042;28;20104;-71
2022/02/02 10:42:38;;;;;;;8.43;3.35;;;;;;;-0.41;78.87;99646.75;5047006;28;20093;-72
2022/02/02 10:45:22;;;;;;;5.82;3.25;;;;;;;-0.42;78.28;99656.94;5064976;28;20028;-72
2022/02/02 10:47:55;;;;;;;4.88;3.17;;;;;;;-0.44;78.03;99661.13;5064950;28;20029;-71
2022/02/02 10:50:31;;;;;;;9.57;4.78;;;;;;;-0.57;77.80;99665.91;5047274;28;20045;-73
2022/02/02 10:56:06;;;;;;;5.82;3.55;;;;;;;-0.55;77.51;99666.84;5023084;28;20037;-71
2022/02/02 11:09:00;;;;;;;5.20;2.75;;;;;;;-0.01;78.50;99680.00;5064627;28;20040;-72
2022/02/02 11:11:25;;;;;;;4.22;2.70;;;;;;;0.07;77.53;99698.03;5064564;28;20021;-72
2022/02/02 11:14:02;;;;;;;5.32;2.33;;;;;;;0.19;77.53;99691.50;5064286;28;20081;-74
2022/02/02 11:16:32;;;;;;;4.63;2.58;;;;;;;0.63;78.62;99703.50;5046248;28;20020;-69
2022/02/02 11:19:00;;;;;;;4.45;2.67;;;;;;;1.56;77.80;99708.63;5064470;28;20098;-71
2022/02/02 11:21:36;;;;;;;8.55;3.45;;;;;;;1.91;73.55;99698.13;5064361;28;20052;-76
2022/02/02 11:24:16;;;;;;;3.63;2.03;;;;;;;1.73;71.98;99704.66;5064296;28;20343;-74
2022/02/02 11:26:46;;;;;;;4.22;2.13;;;;;;;1.32;71.61;99705.69;5046091;28;20021;-75
2022/02/02 11:29:38;;;;;;;4.15;1.85;;;;;;;0.93;72.83;99701.50;5046268;28;20051;-74
2022/02/02 11:32:11;;;;;;;3.88;1.85;;;;;;;1.31;73.39;99705.66;5045945;28;20021;-74
2022/02/02 11:34:40;;;;;;;5.10;1.98;;;;;;;1.04;72.38;99715.38;5064096;28;20024;-75
2022/02/02 11:37:07;;;;;;;3.15;2.08;;;;;;;0.65;73.17;99717.16;5063664;28;20040;-76
2022/02/02 11:39:46;;;;;;;6.10;2.05;;;;;;;0.58;74.90;99705.09;5064090;28;20033;-76
2022/02/02 11:42:44;;;;;;;3.80;2.28;;;;;;;1.17;73.79;99721.59;5063830;28;20035;-77
2022/02/02 11:45:40;;;;;;;3.67;2.03;;;;;;;1.11;74.09;99721.47;5045468;28;20029;-76
2022/02/02 11:48:16;;;;;;;3.17;1.98;;;;;;;1.01;74.95;99724.69;5063790;28;20021;-75
2022/02/02 11:50:51;;;;;;;4.32;1.83;;;;;;;0.83;75.39;99729.44;5063914;28;20028;-76
2022/02/02 11:53:51;;;;;;;4.78;2.15;;;;;;;0.78;75.12;99732.75;5063831;28;20492;-75
2022/02/02 11:56:17;;;;;;;3.45;2.28;;;;;;;0.70;76.45;99738.56;5063649;28;20020;-75
2022/02/02 11:58:44;;;;;;;3.17;2.10;;;;;;;0.57;77.23;99731.47;5045571;28;20040;-75
2022/02/02 12:06:55;;;;;;;3.60;2.40;;;;;;;0.44;77.21;99754.19;5063386;28;20025;-76
2022/02/02 12:09:36;;;;;;;3.75;2.80;;;;;;;0.44;77.66;99743.97;5063297;28;20021;-77
2022/02/02 12:50:30;;;;;;;4.10;2.63;;;;;;;-0.82;80.72;99796.97;5063112;28;20036;-71
2022/02/02 12:58:27;;;;;;;4.53;2.67;;;;;;;-0.33;82.71;99805.09;5062691;28;20037;-72
2022/02/02 13:01:09;;;;;;;3.80;2.80;;;;;;;-0.09;82.95;99823.53;5062989;28;20021;-72
2022/02/02 13:03:40;;;;;;;5.53;2.40;;;;;;;-0.11;82.61;99826.06;5044905;28;20064;-71
2022/02/02 13:06:18;;;;;;;4.47;2.58;;;;;;;-0.11;80.84;99831.16;5062680;28;20056;-70
2022/02/02 13:08:47;;;;;;;3.85;2.72;;;;;;;-0.07;81.95;99819.34;5063060;28;20070;-71
2022/02/02 13:11:12;;;;;;;4.85;2.50;;;;;;;0.07;82.45;99819.69;5044815;28;20013;-71
2022/02/02 13:13:43;;;;;;;5.47;1.90;;;;;;;0.21;82.23;99833.66;5044673;28;20035;-70
2022/02/02 13:16:14;;;;;;;4.28;2.58;;;;;;;0.31;82.09;99837.31;5044756;28;20028;-70
2022/02/02 13:18:43;;;;;;;5.22;2.45;;;;;;;0.29;82.41;99845.78;5062926;28;20043;-70
2022/02/02 13:21:17;;;;;;;5.13;2.38;;;;;;;0.23;82.84;99849.03;5062993;28;20025;-70
2022/02/02 13:23:52;;;;;;;3.38;2.40;;;;;;;0.31;82.88;99860.28;5044731;28;20037;-69
2022/02/02 13:26:30;;;;;;;4.47;2.28;;;;;;;0.28;82.86;99859.34;5062785;28;20063;-71
2022/02/02 13:32:01;;;;;;;5.32;2.63;;;;;;;0.47;83.33;99863.22;5066511;28;20024;-70
2022/02/02 13:34:59;;;;;;;4.78;2.60;;;;;;;0.30;82.90;99845.81;5066279;28;20021;-70
2022/02/02 13:43:37;;;;;;;6.68;2.83;;;;;;;0.26;83.52;99866.97;5066047;28;20366;-70
2022/02/02 13:51:31;;;;;;;5.45;2.90;;;;;;;0.21;83.88;99869.41;5065918;28;20420;-69
2022/02/02 13:57:43;;;;;;;6.93;3.22;;;;;;;0.31;84.23;99877.28;5037710;28;20044;-69
2022/02/02 14:09:00;;;;;;;14.23;5.88;;;;;;;0.50;84.77;99883.72;4984048;28;20066;-69
2022/02/02 14:32:26;;;;;;;8.48;4.85;;;;;;;0.18;83.98;99901.66;4983767;28;20086;-70
2022/02/02 14:34:51;;;;;;;7.68;3.40;;;;;;;0.04;84.26;99893.63;4983827;28;20502;-70
2022/02/02 14:37:21;;;;;;;7.55;4.00;;;;;;;-0.05;84.57;99882.34;4983527;28;20137;-70
2022/02/02 14:39:57;;;;;;;5.05;3.15;;;;;;;0.07;84.71;99906.47;4983574;28;20098;-70
2022/02/02 14:42:27;;;;;;;7.10;2.92;;;;;;;0.07;84.56;99909.03;4982620;28;20027;-70
2022/02/02 14:44:59;;;;;;;5.32;3.08;;;;;;;0.05;84.49;99913.25;5011505;28;20036;-72
2022/02/02 14:47:34;;;;;;;4.88;2.70;;;;;;;0.02;83.71;99913.16;5047045;28;20055;-71
2022/02/02 14:50:10;;;;;;;6.28;2.58;;;;;;;-0.22;82.24;99898.94;5064856;28;20080;-71
2022/02/02 14:52:51;;;;;;;5.72;3.00;;;;;;;-0.41;82.24;99898.38;5064918;28;20045;-71
2022/02/02 15:23:52;;;;;;;8.00;3.38;;;;;;;-1.12;83.93;99928.63;5064544;28;20608;-73
2022/02/02 15:31:19;;;;;;;10.88;3.03;;;;;;;-1.39;84.35;99916.75;5002315;28;20042;-73
2022/02/02 15:33:19;;;;;;;4.70;2.55;;;;;;;-1.59;84.29;99899.13;4997718;28;20089;-72
2022/02/02 15:35:45;;;;;;;6.88;3.20;;;;;;;-1.53;84.30;99921.34;5002155;28;20033;-73
2022/02/02 15:38:19;;;;;;;7.28;3.53;;;;;;;-1.51;84.10;99920.59;5002007;28;20346;-73
2022/02/02 15:40:53;;;;;;;13.18;7.20;;;;;;;-1.65;84.16;99911.66;5001740;28;20589;-73
2022/02/02 15:43:44;;;;;;;8.05;3.95;;;;;;;-1.60;84.26;99940.69;5002550;28;20034;-73
2022/02/02 16:02:16;;;;;;;6.95;2.67;;;;;;;-1.96;84.52;99962.34;4982227;28;20034;-73
2022/02/02 16:04:42;;;;;;;5.30;2.85;;;;;;;-2.06;84.55;99948.44;4981989;28;20045;-74
2022/02/02 16:07:10;;;;;;;5.03;3.00;;;;;;;-1.98;84.75;99958.03;4982207;28;20035;-75
2022/02/02 16:09:52;;;;;;;5.35;2.70;;;;;;;-1.97;84.57;99964.84;4981916;28;20092;-73
2022/02/02 16:12:51;;;;;;;4.35;2.38;;;;;;;-2.10;84.65;99944.06;4981812;28;20062;-74
2022/02/02 16:36:57;;;;;;;3.78;2.47;;;;;;;-2.11;84.90;99988.13;4981257;28;20090;-74
2022/02/02 16:39:24;;;;;;;4.45;2.58;;;;;;;-2.10;85.04;99992.38;4965111;28;20031;-73
2022/02/02 16:44:37;;;;;;;5.43;2.75;;;;;;;-2.19;85.15;99984.44;4981309;28;20214;-72
2022/02/02 16:47:03;;;;;;;5.53;2.63;;;;;;;-2.05;85.08;100003.59;4981162;28;20638;-71
2022/02/02 16:49:28;;;;;;;8.45;3.47;;;;;;;-2.04;85.09;100010.41;4981186;28;20173;-72
2022/02/02 16:51:54;;;;;;;3.20;2.38;;;;;;;-2.02;85.12;100001.16;4965071;28;20550;-72
2022/02/02 16:54:26;;;;;;;9.32;2.63;;;;;;;-2.10;85.17;99977.13;4981128;28;20337;-72
2022/02/02 17:30:10;;;;;;;4.47;2.75;;;;;;;-1.84;85.62;100024.66;5046167;28;20064;-71
2022/02/02 17:35:01;;;;;;;5.13;2.40;;;;;;;-1.80;85.59;100003.59;5046286;28;20025;-70
2022/02/02 17:40:34;;;;;;;7.97;3.03;;;;;;;-1.68;85.65;99998.09;5065990;28;20469;-72
2022/02/02 17:45:55;;;;;;;7.60;3.40;;;;;;;-1.59;85.67;100011.13;5066021;28;20274;-72
2022/02/02 18:20:47;;;;;;;4.75;3.05;;;;;;;-1.60;86.12;100027.22;5064894;28;20033;-73
2022/02/02 18:25:51;;;;;;;6.97;3.53;;;;;;;-1.54;86.39;100027.44;5064659;28;20032;-72
2022/02/02 18:28:43;;;;;;;7.18;3.83;;;;;;;-1.58;86.40;100017.09;5064379;28;20025;-72
2022/02/02 18:44:32;;;;;;;6.28;3.70;;;;;;;-1.26;86.28;100018.19;5064174;28;20029;-73
2022/02/02 18:47:00;;;;;;;7.82;3.78;;;;;;;-1.20;86.29;100016.66;5063946;28;20029;-72
2022/02/02 18:56:16;;;;;;;10.80;4.45;;;;;;;-1.06;86.44;100005.25;4982400;28;20387;-72
2022/02/02 20:08:21;;;;;;;8.02;2.83;;;;;;;-0.11;84.20;100003.84;5063356;28;20312;-72
2022/02/02 20:10:39;;;;;;;8.05;3.17;;;;;;;-0.02;83.92;100007.50;5062460;28;20061;-71
2022/02/02 20:13:04;;;;;;;10.93;2.95;;;;;;;0.04;83.17;100005.94;5063018;28;20033;-71
2022/02/02 20:15:35;;;;;;;5.97;2.30;;;;;;;0.11;83.38;100008.72;5045295;28;20396;-70
2022/02/02 20:18:03;;;;;;;9.10;2.80;;;;;;;0.33;83.71;100026.31;5062988;28;20029;-70
2022/02/02 20:20:28;;;;;;;10.43;2.45;;;;;;;0.40;84.05;100030.75;5061466;28;20039;-70
2022/02/02 20:22:54;;;;;;;12.43;4.50;;;;;;;0.46;83.87;100025.81;5063194;28;20029;-70
2022/02/02 20:25:19;;;;;;;7.95;2.45;;;;;;;0.47;83.89;100019.91;5063127;28;20021;-70
2022/02/02 20:28:04;;;;;;;5.45;2.70;;;;;;;0.56;83.28;100023.53;5062915;28;20035;-70
2022/02/02 20:30:29;;;;;;;14.02;2.85;;;;;;;0.63;83.11;100025.41;5063099;28;20089;-69
2022/02/02 20:32:55;;;;;;;7.63;2.70;;;;;;;0.70;83.47;100026.44;5063135;28;20049;-70
2022/02/02 20:35:20;;;;;;;6.00;2.25;;;;;;;0.77;83.59;100027.47;5062719;28;20059;-70
2022/02/02 20:37:46;;;;;;;8.63;3.10;;;;;;;0.68;83.12;100011.06;5044663;28;20056;-70
2022/02/02 20:40:13;;;;;;;11.68;2.58;;;;;;;0.70;83.10;100004.28;5065450;28;20020;-71
2022/02/02 20:42:54;;;;;;;11.18;2.45;;;;;;;0.90;83.07;100028.63;5066709;28;20120;-71
2022/02/02 21:14:44;;;;;;;8.40;2.50;;;;;;;1.56;84.14;100031.03;5066384;28;20025;-69
2022/02/02 21:17:19;;;;;;;7.75;2.22;;;;;;;1.55;83.58;100034.41;5066427;28;20165;-70
2022/02/02 21:19:53;;;;;;;9.85;2.15;;;;;;;1.55;83.05;100035.25;5066503;28;20029;-69
2022/02/02 21:22:20;;;;;;;10.38;2.40;;;;;;;1.56;82.76;100031.91;5048356;28;20029;-70
2022/02/02 21:27:26;;;;;;;13.63;2.78;;;;;;;1.58;82.21;100035.34;5066451;28;20025;-69
2022/02/02 21:29:51;;;;;;;11.18;2.50;;;;;;;1.52;81.64;100024.97;5066285;28;20545;-69
2022/02/02 21:32:18;;;;;;;11.82;1.83;;;;;;;1.60;81.49;100038.81;5066177;28;20028;-69
2022/02/02 21:34:44;;;;;;;11.88;3.22;;;;;;;1.64;81.85;100034.63;5066092;28;20067;-68
2022/02/02 21:37:10;;;;;;;7.70;2.20;;;;;;;1.67;81.38;100028.69;5064452;28;20069;-68
2022/02/02 21:39:39;;;;;;;7.68;1.92;;;;;;;1.71;81.17;100030.50;5065997;28;20045;-68
2022/02/02 21:42:05;;;;;;;7.95;1.50;;;;;;;1.75;81.47;100022.06;5065914;28;20076;-68
2022/02/02 21:44:31;;;;;;;12.18;1.75;;;;;;;1.81;80.91;100029.00;5066074;28;20057;-69
2022/02/02 21:46:57;;;;;;;10.07;1.90;;;;;;;1.87;80.93;100030.84;5065860;28;20047;-69
2022/02/02 21:49:26;;;;;;;9.65;1.83;;;;;;;1.84;81.16;100011.13;5065886;28;20040;-69
2022/02/02 21:52:04;;;;;;;10.43;2.22;;;;;;;1.93;80.96;100026.69;5065513;28;20294;-69
2022/02/02 21:54:29;;;;;;;12.32;2.08;;;;;;;1.95;80.02;100030.16;5047977;28;20112;-70
2022/02/02 21:56:56;;;;;;;5.57;1.85;;;;;;;2.01;80.34;100029.44;5065724;28;20104;-70
2022/02/02 21:59:22;;;;;;;9.88;2.42;;;;;;;1.94;80.30;100017.31;5065563;28;20021;-71
2022/02/02 22:01:48;;;;;;;13.43;3.00;;;;;;;1.97;80.29;100018.25;5047702;28;20048;-69
2022/02/02 22:04:13;;;;;;;8.75;2.60;;;;;;;2.04;80.25;100026.94;5065678;28;20048;-69
2022/02/02 22:06:39;;;;;;;11.07;2.42;;;;;;;2.10;79.72;100033.84;5065519;28;20388;-68
2022/02/02 22:09:04;;;;;;;9.68;2.40;;;;;;;2.10;79.56;100037.28;5065756;28;20029;-71
2022/02/02 22:11:30;;;;;;;5.78;2.17;;;;;;;2.11;79.22;100035.56;5047576;28;20013;-69
2022/02/02 22:14:11;;;;;;;21.92;3.25;;;;;;;2.02;79.34;100022.59;5065404;28;20031;-70
2022/02/02 22:16:38;;;;;;;13.90;3.22;;;;;;;2.11;79.29;100035.56;5065471;28;20025;-71
2022/02/02 22:19:04;;;;;;;8.48;2.10;;;;;;;2.11;79.71;100045.81;5065368;28;20104;-71
2022/02/02 22:21:30;;;;;;;10.10;2.45;;;;;;;2.10;79.60;100028.75;5065172;28;20052;-70
2022/02/02 22:23:55;;;;;;;5.05;1.83;;;;;;;2.07;79.94;100031.25;5065562;28;20056;-70
2022/02/02 22:26:21;;;;;;;15.95;2.17;;;;;;;2.09;80.10;100032.16;5065278;28;20021;-70
2022/02/02 22:28:47;;;;;;;6.90;2.33;;;;;;;2.12;80.56;100037.31;5065083;28;20021;-69
2022/02/02 22:31:13;;;;;;;10.40;2.00;;;;;;;1.96;80.75;100019.09;5065283;28;20051;-69
2022/02/02 22:33:38;;;;;;;6.40;2.22;;;;;;;1.97;81.16;100023.38;5065208;28;20028;-69
2022/02/02 22:36:04;;;;;;;7.00;2.20;;;;;;;1.96;81.03;100020.78;5064983;28;20054;-70
2022/02/02 22:38:30;;;;;;;6.13;1.92;;;;;;;1.93;81.72;100024.13;5046877;28;20045;-70
2022/02/02 22:40:57;;;;;;;17.40;2.72;;;;;;;1.89;81.82;100016.34;5064947;28;20044;-71
2022/02/02 22:43:23;;;;;;;11.35;2.25;;;;;;;1.90;81.99;100016.38;5046872;28;20021;-71
2022/02/02 22:45:51;;;;;;;6.15;2.28;;;;;;;1.89;82.18;100017.22;5064724;28;20031;-70
2022/02/02 22:48:20;;;;;;;15.77;2.60;;;;;;;1.75;82.29;99996.47;5046862;28;20063;-70
2022/02/02 22:50:46;;;;;;;11.52;3.15;;;;;;;1.85;82.55;100012.88;5064742;28;20173;-70